Startpagina
METAR-TAF:

METAR-TAF

Vliegvelden :

Internationale luchthaven Kunming Changshui

Kunming, China

breedte: 25-01N, lengte: 102-41E, hoogte: 1892 m

Actueel weer

Dit bericht is 17 minuten geleden gemaakt, om 18:00 UTC
Wind 6 kt uit het zuidwesten
Temperatuur 17°C
Vochtigheid 39%
Druk 1019 hPa
Zicht 10 km of meer
geen wolken onder 1500 m en geen cumulonimbus

METAR: ZPPP 221800Z 22003MPS CAVOK 17/03 Q1019 NOSIG

Tijdstip: 02:17 (18:17 UTC)

Verwachting

Dit bericht is 5 uur en het 13 minuten geleden gemaakt, om 13:04 UTC
Verwachting geldig van 22 om 18 UTC tot 23 om 18 UTC
Wind 12 kt uit het zuidwesten
Zicht 10 km of meer
geen wolken onder 1500 m en geen cumulonimbus

TAF: ZPPP 221304Z 2218/2318 23006MPS CAVOK TX28/2308Z TN13/2223Z

Waarnemingen en weersverwachtingen van meer dan 4000 vliegvelden (METAR en TAF).

De beschikbare stations zijn de gele en rode punten op de kaart.

Ga met uw muis naar het station om de naam te zien.

Klik dan om waarnemingen en weersverwachtingen te zien.

kaart wijzigen: klik op de groene knoppen met een zwart kruis om in te zoomen, op de groene knop met een streepje om uit te zoomen of op de groene pijlen voor aangrenzende kaarten.


METAR-TAF: